Time;durP1;ratioP1;P1;durP2;ratioP2;P2;SDS_P1;SDS_P2;PMS_P1;PMS_P2;Temp;Humidity;BMP_temperature;BMP_pressure;BME280_temperature;BME280_humidity;BME280_pressure;Samples;Min_cycle;Max_cycle;Signal;HPM_P1;HPM_P2
2023/03/14 00:00:00;;;;;;;2.97;1.50;;;;;;;;;;2078943;28;20033;-78
2023/03/14 00:01:23;;;;;;;3.67;1.38;;;;;;;;;;2077337;28;20034;-78
2023/03/14 00:02:42;;;;;;;3.33;1.30;;;;;;;;;;2073361;28;20041;-77
2023/03/14 00:04:03;;;;;;;6.80;1.38;;;;;;;;;;2077657;28;20029;-77
2023/03/14 00:05:22;;;;;;;3.97;1.20;;;;;;;;;;2078908;28;20021;-78
2023/03/14 00:06:41;;;;;;;4.95;1.70;;;;;;;;;;2077624;28;20022;-78
2023/03/14 00:08:00;;;;;;;3.10;1.20;;;;;;;;;;2072389;28;20152;-77
2023/03/14 00:09:18;;;;;;;4.82;1.35;;;;;;;;;;2069970;28;20045;-77
2023/03/14 00:10:37;;;;;;;7.13;1.70;;;;;;;;;;2075889;28;20029;-78
2023/03/14 00:11:57;;;;;;;4.38;1.40;;;;;;;;;;2078316;28;20455;-78
2023/03/14 00:13:15;;;;;;;2.97;1.30;;;;;;;;;;2079468;28;20037;-77
2023/03/14 00:14:34;;;;;;;3.22;1.40;;;;;;;;;;2080504;28;20469;-77
2023/03/14 00:15:53;;;;;;;6.38;1.52;;;;;;;;;;2078340;28;20034;-77
2023/03/14 00:17:13;;;;;;;2.85;1.20;;;;;;;;;;2079138;28;20034;-77
2023/03/14 00:18:35;;;;;;;6.65;1.48;;;;;;;;;;2074493;28;20022;-77
2023/03/14 00:19:54;;;;;;;3.28;1.42;;;;;;;;;;2069132;28;20301;-77
2023/03/14 00:21:13;;;;;;;5.72;1.67;;;;;;;;;;2076205;28;20021;-77
2023/03/14 00:22:32;;;;;;;8.52;2.15;;;;;;;;;;2080498;28;20033;-77
2023/03/14 00:23:51;;;;;;;5.35;1.65;;;;;;;;;;2081621;28;20022;-78
2023/03/14 00:25:11;;;;;;;5.95;1.83;;;;;;;;;;2079978;28;20064;-77
2023/03/14 00:26:30;;;;;;;5.75;1.20;;;;;;;;;;2076924;28;20025;-78
2023/03/14 00:27:50;;;;;;;5.25;1.65;;;;;;;;;;2074276;28;20038;-77
2023/03/14 00:29:09;;;;;;;4.60;1.67;;;;;;;;;;2076596;28;20029;-78
2023/03/14 00:30:28;;;;;;;5.25;1.70;;;;;;;;;;2070510;28;20116;-77
2023/03/14 00:31:47;;;;;;;5.47;1.63;;;;;;;;;;2078933;28;20089;-77
2023/03/14 00:33:05;;;;;;;3.10;1.58;;;;;;;;;;2077841;28;20042;-78
2023/03/14 00:34:28;;;;;;;3.20;1.83;;;;;;;;;;2072889;28;20021;-77
2023/03/14 00:35:54;;;;;;;6.53;1.60;;;;;;;;;;2075925;28;20057;-77
2023/03/14 00:37:14;;;;;;;6.22;1.33;;;;;;;;;;2071676;28;20604;-77
2023/03/14 00:38:33;;;;;;;5.30;1.55;;;;;;;;;;2077372;28;20026;-76
2023/03/14 00:39:52;;;;;;;6.18;1.63;;;;;;;;;;2079017;28;20025;-78
2023/03/14 00:41:12;;;;;;;2.60;1.65;;;;;;;;;;2080258;28;20104;-78
2023/03/14 00:42:31;;;;;;;2.80;1.30;;;;;;;;;;2080106;28;20025;-77
2023/03/14 00:43:51;;;;;;;5.60;1.83;;;;;;;;;;2075734;28;20112;-78
2023/03/14 00:45:10;;;;;;;3.55;1.55;;;;;;;;;;2075192;28;20621;-77
2023/03/14 00:46:29;;;;;;;2.08;1.30;;;;;;;;;;2080040;28;20037;-77
2023/03/14 00:47:48;;;;;;;4.80;1.42;;;;;;;;;;2079895;28;20029;-77
2023/03/14 00:49:07;;;;;;;4.40;1.35;;;;;;;;;;2080369;28;20022;-77
2023/03/14 00:50:26;;;;;;;4.68;1.35;;;;;;;;;;2079267;28;21228;-77
2023/03/14 00:51:44;;;;;;;4.68;1.50;;;;;;;;;;2079862;28;20026;-78
2023/03/14 00:53:03;;;;;;;5.10;1.23;;;;;;;;;;2072909;28;20030;-76
2023/03/14 00:54:22;;;;;;;3.50;1.48;;;;;;;;;;2075845;28;20021;-77
2023/03/14 00:55:42;;;;;;;4.55;1.35;;;;;;;;;;2071729;28;20493;-78
2023/03/14 00:57:01;;;;;;;4.07;1.23;;;;;;;;;;2079010;28;20025;-77
2023/03/14 00:58:20;;;;;;;2.50;1.10;;;;;;;;;;2081125;28;20037;-77
2023/03/14 00:59:39;;;;;;;2.38;1.17;;;;;;;;;;2079004;28;20395;-78
2023/03/14 01:00:58;;;;;;;4.70;1.58;;;;;;;;;;2079870;28;20068;-77
2023/03/14 01:02:17;;;;;;;3.25;1.23;;;;;;;;;;2080021;28;20495;-77
2023/03/14 01:03:36;;;;;;;2.63;1.00;;;;;;;;;;2076338;28;20117;-77
2023/03/14 01:04:55;;;;;;;3.58;1.15;;;;;;;;;;2072340;28;20026;-77
2023/03/14 01:06:15;;;;;;;5.18;1.73;;;;;;;;;;2076154;28;20025;-78
2023/03/14 01:07:34;;;;;;;5.18;1.33;;;;;;;;;;2082463;28;20029;-77
2023/03/14 01:08:54;;;;;;;4.65;1.35;;;;;;;;;;2074736;28;20038;-77
2023/03/14 01:10:13;;;;;;;2.90;1.00;;;;;;;;;;2077513;28;20490;-77
2023/03/14 01:11:33;;;;;;;4.15;1.10;;;;;;;;;;2075322;28;20030;-77
2023/03/14 01:12:52;;;;;;;3.25;1.00;;;;;;;;;;2078572;28;20025;-77
2023/03/14 01:14:11;;;;;;;1.60;1.08;;;;;;;;;;2081219;28;20030;-77
2023/03/14 01:15:32;;;;;;;2.28;0.90;;;;;;;;;;2072535;28;20034;-77
2023/03/14 01:16:51;;;;;;;2.35;1.10;;;;;;;;;;2075693;28;20120;-77
2023/03/14 01:18:10;;;;;;;1.77;0.63;;;;;;;;;;2073788;28;20559;-79
2023/03/14 01:19:29;;;;;;;4.63;1.52;;;;;;;;;;2086199;28;20026;-78
2023/03/14 01:20:49;;;;;;;3.40;0.93;;;;;;;;;;2089700;28;20033;-79
2023/03/14 01:22:08;;;;;;;2.80;1.05;;;;;;;;;;2082499;28;20017;-78
2023/03/14 01:23:27;;;;;;;4.18;0.80;;;;;;;;;;2089488;28;20030;-78
2023/03/14 01:24:46;;;;;;;4.35;0.90;;;;;;;;;;2088652;28;20013;-78
2023/03/14 01:26:08;;;;;;;1.73;0.90;;;;;;;;;;2085745;28;20026;-77
2023/03/14 01:27:27;;;;;;;1.85;1.02;;;;;;;;;;2088349;28;20053;-77
2023/03/14 01:28:46;;;;;;;5.20;1.05;;;;;;;;;;2083284;28;20025;-78
2023/03/14 01:30:07;;;;;;;4.43;0.95;;;;;;;;;;2085287;28;20037;-77
2023/03/14 01:31:27;;;;;;;4.82;0.90;;;;;;;;;;2076486;28;20038;-78
2023/03/14 01:32:46;;;;;;;3.90;1.05;;;;;;;;;;2080441;28;20042;-76
2023/03/14 01:34:05;;;;;;;1.25;0.80;;;;;;;;;;2080444;28;20021;-78
2023/03/14 01:35:24;;;;;;;1.98;0.88;;;;;;;;;;2080517;28;20680;-77
2023/03/14 01:36:43;;;;;;;3.08;0.85;;;;;;;;;;2080395;28;20394;-77
2023/03/14 01:38:02;;;;;;;5.28;1.10;;;;;;;;;;2083071;28;20029;-77
2023/03/14 01:39:21;;;;;;;1.55;0.80;;;;;;;;;;2080184;28;20465;-77
2023/03/14 01:40:44;;;;;;;4.25;1.42;;;;;;;;;;2080123;28;20029;-77
2023/03/14 01:42:03;;;;;;;1.65;0.75;;;;;;;;;;2073111;28;20058;-77
2023/03/14 01:43:24;;;;;;;4.70;0.63;;;;;;;;;;2068157;28;20022;-77
2023/03/14 01:44:56;;;;;;;5.07;0.98;;;;;;;;;;2070478;28;20034;-79
2023/03/14 01:46:24;;;;;;;3.05;0.70;;;;;;;;;;2079596;28;20143;-78
2023/03/14 01:47:43;;;;;;;3.25;0.70;;;;;;;;;;2075338;28;20029;-77
2023/03/14 01:49:05;;;;;;;5.85;1.30;;;;;;;;;;2077504;28;20029;-77
2023/03/14 01:50:24;;;;;;;2.97;0.70;;;;;;;;;;2082473;28;20022;-77
2023/03/14 01:51:55;;;;;;;3.47;0.60;;;;;;;;;;2074666;28;20064;-77
2023/03/14 01:53:14;;;;;;;2.35;0.73;;;;;;;;;;2078795;28;20116;-77
2023/03/14 01:54:41;;;;;;;2.00;0.77;;;;;;;;;;2079180;28;20021;-78
2023/03/14 01:56:00;;;;;;;2.63;0.63;;;;;;;;;;2071660;28;20839;-77
2023/03/14 01:57:22;;;;;;;4.55;1.00;;;;;;;;;;2069162;28;20037;-78
2023/03/14 01:58:43;;;;;;;3.50;0.98;;;;;;;;;;2079112;28;20105;-78
2023/03/14 02:00:21;;;;;;;2.28;0.70;;;;;;;;;;2075518;28;20057;-77
2023/03/14 02:01:42;;;;;;;1.38;0.60;;;;;;;;;;2071913;28;20026;-77
2023/03/14 02:03:12;;;;;;;4.45;0.80;;;;;;;;;;2076416;28;20490;-78
2023/03/14 02:04:32;;;;;;;2.08;0.60;;;;;;;;;;2080106;28;20607;-77
2023/03/14 02:05:54;;;;;;;1.00;0.70;;;;;;;;;;2079292;28;20029;-77
2023/03/14 02:07:24;;;;;;;2.10;0.70;;;;;;;;;;2082600;28;20029;-77
2023/03/14 02:08:47;;;;;;;3.63;0.82;;;;;;;;;;2078256;28;20041;-78
2023/03/14 02:10:07;;;;;;;2.15;0.80;;;;;;;;;;2080207;28;20029;-77
2023/03/14 02:11:27;;;;;;;2.80;0.70;;;;;;;;;;2080269;28;20030;-78
2023/03/14 02:12:47;;;;;;;1.13;0.63;;;;;;;;;;2062489;28;20049;-77
2023/03/14 02:14:07;;;;;;;4.07;0.70;;;;;;;;;;2075161;28;20045;-77
2023/03/14 02:15:27;;;;;;;2.72;0.95;;;;;;;;;;2078622;28;20486;-77
2023/03/14 02:16:46;;;;;;;4.47;0.90;;;;;;;;;;2081061;28;20029;-77
2023/03/14 02:18:05;;;;;;;2.65;0.70;;;;;;;;;;2079335;28;20029;-77
2023/03/14 02:19:28;;;;;;;2.22;0.68;;;;;;;;;;2080035;28;20041;-77
2023/03/14 02:20:56;;;;;;;3.63;0.80;;;;;;;;;;2079413;28;20026;-77
2023/03/14 02:22:16;;;;;;;2.50;0.60;;;;;;;;;;2074009;28;20049;-77
2023/03/14 02:23:53;;;;;;;1.50;0.60;;;;;;;;;;2078677;28;20025;-77
2023/03/14 02:25:12;;;;;;;1.50;0.60;;;;;;;;;;2080252;28;20061;-77
2023/03/14 02:26:31;;;;;;;3.03;0.50;;;;;;;;;;2080488;28;20017;-77
2023/03/14 02:27:50;;;;;;;4.22;0.80;;;;;;;;;;2081772;28;20029;-78
2023/03/14 02:29:09;;;;;;;2.15;0.55;;;;;;;;;;2080423;28;20025;-77
2023/03/14 02:30:30;;;;;;;2.50;0.60;;;;;;;;;;2079247;28;20033;-77
2023/03/14 02:31:49;;;;;;;1.20;0.65;;;;;;;;;;2077870;28;20056;-77
2023/03/14 02:33:10;;;;;;;1.17;0.50;;;;;;;;;;2080103;28;20033;-78
2023/03/14 02:34:31;;;;;;;2.85;0.95;;;;;;;;;;2074173;28;20038;-77
2023/03/14 02:35:53;;;;;;;1.10;0.60;;;;;;;;;;2078918;28;20054;-77
2023/03/14 02:37:13;;;;;;;2.88;0.80;;;;;;;;;;2077209;28;20017;-77
2023/03/14 02:38:37;;;;;;;2.65;0.60;;;;;;;;;;2070005;28;20038;-77
2023/03/14 02:39:56;;;;;;;1.38;0.60;;;;;;;;;;2078573;28;20475;-77
2023/03/14 02:41:15;;;;;;;1.50;0.70;;;;;;;;;;2073061;28;20033;-77
2023/03/14 02:42:34;;;;;;;2.17;0.80;;;;;;;;;;2076661;28;20491;-77
2023/03/14 02:43:53;;;;;;;3.13;0.85;;;;;;;;;;2079249;28;20532;-77
2023/03/14 02:45:15;;;;;;;1.45;0.65;;;;;;;;;;2068102;28;20029;-78
2023/03/14 02:46:34;;;;;;;3.80;0.60;;;;;;;;;;2077439;28;20041;-77
2023/03/14 02:47:54;;;;;;;2.53;0.65;;;;;;;;;;2081558;28;20030;-77
2023/03/14 02:49:14;;;;;;;1.75;0.80;;;;;;;;;;2077992;28;20021;-77
2023/03/14 02:50:33;;;;;;;4.28;1.00;;;;;;;;;;2073417;28;20029;-78
2023/03/14 02:51:52;;;;;;;1.27;0.70;;;;;;;;;;2074738;28;20128;-78
2023/03/14 02:53:12;;;;;;;4.50;0.80;;;;;;;;;;2076068;28;20054;-77
2023/03/14 02:54:31;;;;;;;4.45;0.93;;;;;;;;;;2076410;28;20025;-77
2023/03/14 02:55:50;;;;;;;4.65;1.10;;;;;;;;;;2078624;28;20026;-77
2023/03/14 02:57:09;;;;;;;2.13;0.80;;;;;;;;;;2078378;28;20025;-77
2023/03/14 02:58:29;;;;;;;3.92;0.75;;;;;;;;;;2068903;28;20081;-77
2023/03/14 02:59:49;;;;;;;2.38;1.02;;;;;;;;;;2075952;28;20030;-77
2023/03/14 03:01:08;;;;;;;0.75;0.50;;;;;;;;;;2079401;28;20077;-77
2023/03/14 03:02:27;;;;;;;3.58;0.80;;;;;;;;;;2078728;28;20033;-79
2023/03/14 03:03:46;;;;;;;5.38;0.88;;;;;;;;;;2074808;28;20030;-77
2023/03/14 03:05:05;;;;;;;1.70;0.55;;;;;;;;;;2068167;28;20022;-77
2023/03/14 03:06:24;;;;;;;3.05;0.73;;;;;;;;;;2078591;28;20105;-77
2023/03/14 03:07:43;;;;;;;4.10;0.90;;;;;;;;;;2073457;28;20021;-78
2023/03/14 03:09:02;;;;;;;2.03;0.80;;;;;;;;;;2076868;28;20030;-78
2023/03/14 03:10:21;;;;;;;3.42;0.85;;;;;;;;;;2078055;28;20025;-77
2023/03/14 03:11:40;;;;;;;2.05;0.80;;;;;;;;;;2079475;28;20029;-79
2023/03/14 03:12:59;;;;;;;2.83;0.60;;;;;;;;;;2079278;28;20113;-77
2023/03/14 03:14:18;;;;;;;2.95;0.98;;;;;;;;;;2081441;28;20406;-77
2023/03/14 03:15:37;;;;;;;4.63;0.75;;;;;;;;;;2077260;28;20033;-77
2023/03/14 03:16:56;;;;;;;1.40;0.52;;;;;;;;;;2079057;28;20017;-78
2023/03/14 03:18:15;;;;;;;4.50;0.75;;;;;;;;;;2080221;28;20026;-77
2023/03/14 03:19:34;;;;;;;3.50;0.77;;;;;;;;;;2072748;28;20494;-77
2023/03/14 03:20:53;;;;;;;3.13;0.75;;;;;;;;;;2070088;28;20033;-77
2023/03/14 03:22:12;;;;;;;1.52;0.52;;;;;;;;;;2078657;28;20026;-77
2023/03/14 03:23:31;;;;;;;4.07;0.90;;;;;;;;;;2080341;28;20033;-77
2023/03/14 03:24:50;;;;;;;1.25;0.65;;;;;;;;;;2079378;28;20030;-76
2023/03/14 03:26:09;;;;;;;2.13;0.73;;;;;;;;;;2074189;28;20026;-76
2023/03/14 03:27:31;;;;;;;1.35;0.80;;;;;;;;;;2077974;28;20491;-77
2023/03/14 03:28:51;;;;;;;1.80;0.88;;;;;;;;;;2078707;28;20025;-77
2023/03/14 03:30:10;;;;;;;2.08;0.60;;;;;;;;;;2076204;28;20026;-78
2023/03/14 03:31:30;;;;;;;1.58;0.30;;;;;;;;;;2081616;28;20394;-78
2023/03/14 03:32:48;;;;;;;0.85;0.60;;;;;;;;;;2082856;28;20053;-77
2023/03/14 03:34:08;;;;;;;1.02;0.40;;;;;;;;;;2082097;28;20128;-78
2023/03/14 03:35:27;;;;;;;3.08;0.60;;;;;;;;;;2080106;28;20029;-77
2023/03/14 03:36:46;;;;;;;1.95;0.40;;;;;;;;;;2081363;28;20029;-77
2023/03/14 03:38:05;;;;;;;1.65;0.47;;;;;;;;;;2081031;28;20029;-78
2023/03/14 03:39:24;;;;;;;2.03;0.30;;;;;;;;;;2073303;28;20062;-78
2023/03/14 03:40:43;;;;;;;2.30;0.82;;;;;;;;;;2072935;28;20873;-77
2023/03/14 03:42:02;;;;;;;3.45;0.55;;;;;;;;;;2071124;28;20037;-78
2023/03/14 03:43:20;;;;;;;1.35;0.52;;;;;;;;;;2071263;28;20191;-77
2023/03/14 03:44:39;;;;;;;1.20;0.40;;;;;;;;;;2068360;28;20022;-77
2023/03/14 03:45:58;;;;;;;2.03;0.50;;;;;;;;;;2076227;28;20037;-77
2023/03/14 03:47:18;;;;;;;1.65;0.45;;;;;;;;;;2080527;28;20057;-77
2023/03/14 03:48:37;;;;;;;1.55;0.50;;;;;;;;;;2076030;28;20391;-77
2023/03/14 03:49:57;;;;;;;0.95;0.30;;;;;;;;;;2071646;28;20034;-77
2023/03/14 03:51:16;;;;;;;0.60;0.40;;;;;;;;;;2080248;28;20049;-77
2023/03/14 03:52:35;;;;;;;2.45;0.40;;;;;;;;;;2073705;28;20022;-77
2023/03/14 03:53:55;;;;;;;2.30;0.15;;;;;;;;;;2079966;28;20033;-77
2023/03/14 03:55:14;;;;;;;0.63;0.30;;;;;;;;;;2079107;28;20116;-77
2023/03/14 03:56:33;;;;;;;0.70;0.40;;;;;;;;;;2081327;28;20021;-77
2023/03/14 03:57:52;;;;;;;3.85;0.65;;;;;;;;;;2078364;28;20022;-77
2023/03/14 03:59:11;;;;;;;2.03;0.43;;;;;;;;;;2081856;28;20026;-78
2023/03/14 04:00:31;;;;;;;0.80;0.40;;;;;;;;;;2074635;28;20078;-78
2023/03/14 04:01:50;;;;;;;2.95;0.57;;;;;;;;;;2076872;28;20038;-78
2023/03/14 04:03:09;;;;;;;2.30;0.50;;;;;;;;;;2079442;28;20037;-77
2023/03/14 04:04:28;;;;;;;2.10;0.82;;;;;;;;;;2080833;28;20310;-78
2023/03/14 04:05:57;;;;;;;1.33;0.50;;;;;;;;;;2074292;28;20470;-77
2023/03/14 04:07:16;;;;;;;0.98;0.40;;;;;;;;;;2069918;28;20042;-79
2023/03/14 04:08:35;;;;;;;1.15;0.40;;;;;;;;;;2069278;28;20026;-78
2023/03/14 04:09:54;;;;;;;1.83;0.60;;;;;;;;;;2077862;28;20060;-77
2023/03/14 04:11:13;;;;;;;0.85;0.52;;;;;;;;;;2081216;28;20029;-78
2023/03/14 04:12:32;;;;;;;2.28;0.80;;;;;;;;;;2078287;28;20029;-77
2023/03/14 04:13:51;;;;;;;0.77;0.40;;;;;;;;;;2074424;28;20026;-78
2023/03/14 04:15:10;;;;;;;1.85;0.50;;;;;;;;;;2071759;28;20038;-78
2023/03/14 04:16:31;;;;;;;0.95;0.40;;;;;;;;;;2072959;28;20503;-78
2023/03/14 04:17:50;;;;;;;1.40;0.50;;;;;;;;;;2073114;28;20684;-77
2023/03/14 04:19:09;;;;;;;3.75;0.75;;;;;;;;;;2079472;28;20367;-77
2023/03/14 04:20:28;;;;;;;1.92;0.50;;;;;;;;;;2073313;28;20030;-78
2023/03/14 04:21:46;;;;;;;0.80;0.40;;;;;;;;;;2078858;28;20025;-77
2023/03/14 04:23:06;;;;;;;4.93;0.82;;;;;;;;;;2081563;28;20053;-77
2023/03/14 04:24:25;;;;;;;2.10;0.73;;;;;;;;;;2079732;28;20033;-79
2023/03/14 04:25:44;;;;;;;4.05;0.60;;;;;;;;;;2073942;28;20034;-78
2023/03/14 04:27:02;;;;;;;2.42;0.85;;;;;;;;;;2078570;28;20034;-78
2023/03/14 04:28:21;;;;;;;2.58;0.70;;;;;;;;;;2081980;28;20131;-79
2023/03/14 04:29:41;;;;;;;0.90;0.52;;;;;;;;;;2079206;28;20045;-79
2023/03/14 04:31:06;;;;;;;3.20;0.52;;;;;;;;;;2080151;28;20514;-78
2023/03/14 04:32:25;;;;;;;3.63;0.40;;;;;;;;;;2080017;28;20632;-78
2023/03/14 04:33:44;;;;;;;1.15;0.60;;;;;;;;;;2082534;28;20061;-79
2023/03/14 04:35:03;;;;;;;2.20;0.57;;;;;;;;;;2073716;28;20034;-78
2023/03/14 04:36:22;;;;;;;1.38;0.55;;;;;;;;;;2078865;28;20037;-78
2023/03/14 04:37:44;;;;;;;1.95;0.88;;;;;;;;;;2081474;28;20120;-77
2023/03/14 04:39:04;;;;;;;2.33;1.07;;;;;;;;;;2073538;28;20129;-78
2023/03/14 04:40:23;;;;;;;3.67;0.93;;;;;;;;;;2070767;28;20271;-77
2023/03/14 04:41:41;;;;;;;1.33;0.73;;;;;;;;;;2072014;28;20026;-77
2023/03/14 04:43:00;;;;;;;3.20;0.65;;;;;;;;;;2077782;28;20037;-77
2023/03/14 04:44:19;;;;;;;3.30;0.80;;;;;;;;;;2073727;28;20463;-78
2023/03/14 04:45:42;;;;;;;2.17;0.80;;;;;;;;;;2078768;28;20029;-76
2023/03/14 04:47:00;;;;;;;2.60;0.50;;;;;;;;;;2078215;28;20034;-77
2023/03/14 04:48:19;;;;;;;3.33;0.63;;;;;;;;;;2082721;28;20064;-78
2023/03/14 04:49:38;;;;;;;2.30;0.73;;;;;;;;;;2080574;28;20063;-78
2023/03/14 04:50:57;;;;;;;2.83;0.47;;;;;;;;;;2069417;28;20026;-79
2023/03/14 04:52:16;;;;;;;2.40;0.63;;;;;;;;;;2068167;28;20025;-78
2023/03/14 04:53:36;;;;;;;1.13;0.50;;;;;;;;;;2079114;28;20025;-78
2023/03/14 04:54:56;;;;;;;2.92;0.60;;;;;;;;;;2079690;28;20421;-78
2023/03/14 04:56:15;;;;;;;2.42;0.63;;;;;;;;;;2080885;28;20053;-77
2023/03/14 04:57:34;;;;;;;2.17;0.63;;;;;;;;;;2080879;28;20037;-79
2023/03/14 04:58:53;;;;;;;1.70;0.70;;;;;;;;;;2081682;28;20469;-79
2023/03/14 05:00:12;;;;;;;2.03;0.50;;;;;;;;;;2075742;28;20490;-77
2023/03/14 05:01:31;;;;;;;2.10;0.60;;;;;;;;;;2069329;28;20030;-77
2023/03/14 05:02:50;;;;;;;2.00;0.60;;;;;;;;;;2071828;28;20026;-77
2023/03/14 05:04:09;;;;;;;5.38;0.63;;;;;;;;;;2074899;28;20025;-77
2023/03/14 05:05:28;;;;;;;2.22;0.65;;;;;;;;;;2078340;28;20060;-77
2023/03/14 05:06:47;;;;;;;1.67;0.70;;;;;;;;;;2080573;28;20026;-78
2023/03/14 05:08:07;;;;;;;1.63;0.90;;;;;;;;;;2075403;28;20021;-77
2023/03/14 05:09:26;;;;;;;4.45;0.85;;;;;;;;;;2075290;28;20058;-77
2023/03/14 05:10:51;;;;;;;5.40;1.35;;;;;;;;;;2076996;28;20033;-78
2023/03/14 05:12:09;;;;;;;2.20;0.75;;;;;;;;;;2076721;28;20034;-77
2023/03/14 05:13:28;;;;;;;5.10;0.80;;;;;;;;;;2071384;28;20053;-77
2023/03/14 05:14:47;;;;;;;3.72;0.70;;;;;;;;;;2078847;28;20021;-78
2023/03/14 05:16:07;;;;;;;2.15;0.80;;;;;;;;;;2078565;28;20042;-77
2023/03/14 05:17:26;;;;;;;2.78;0.70;;;;;;;;;;2072985;28;20022;-78
2023/03/14 05:18:45;;;;;;;1.67;0.65;;;;;;;;;;2077599;28;20033;-78
2023/03/14 05:20:08;;;;;;;1.73;0.75;;;;;;;;;;2075934;28;20034;-77
2023/03/14 05:21:27;;;;;;;3.78;0.80;;;;;;;;;;2074652;28;20030;-78
2023/03/14 05:22:46;;;;;;;2.03;0.80;;;;;;;;;;2080097;28;20506;-77
2023/03/14 05:24:05;;;;;;;1.90;0.60;;;;;;;;;;2080933;28;20029;-77
2023/03/14 05:25:25;;;;;;;1.75;0.70;;;;;;;;;;2078106;28;20558;-79
2023/03/14 05:26:44;;;;;;;3.88;0.70;;;;;;;;;;2073364;28;20029;-77
2023/03/14 05:28:03;;;;;;;2.85;0.70;;;;;;;;;;2078675;28;20061;-77
2023/03/14 05:29:22;;;;;;;5.05;0.73;;;;;;;;;;2071175;28;20057;-78
2023/03/14 05:30:41;;;;;;;4.25;1.00;;;;;;;;;;2077035;28;20112;-77
2023/03/14 05:32:00;;;;;;;2.35;0.50;;;;;;;;;;2071077;28;20414;-77
2023/03/14 05:33:19;;;;;;;1.67;0.80;;;;;;;;;;2064571;28;20040;-77
2023/03/14 05:34:39;;;;;;;4.70;0.65;;;;;;;;;;2065590;28;20030;-78
2023/03/14 05:35:58;;;;;;;2.72;0.80;;;;;;;;;;2064741;28;20030;-78
2023/03/14 05:37:17;;;;;;;3.22;0.75;;;;;;;;;;2064319;28;20396;-78
2023/03/14 05:38:36;;;;;;;3.42;0.73;;;;;;;;;;2060957;28;20038;-78
2023/03/14 05:39:55;;;;;;;3.38;0.88;;;;;;;;;;2064156;28;20018;-78
2023/03/14 05:41:14;;;;;;;5.10;0.68;;;;;;;;;;2062918;28;20647;-78
2023/03/14 05:42:33;;;;;;;7.38;0.50;;;;;;;;;;2060224;28;20101;-79
2023/03/14 05:43:52;;;;;;;4.15;0.70;;;;;;;;;;2062708;28;20403;-78
2023/03/14 05:45:10;;;;;;;1.58;0.85;;;;;;;;;;2063710;28;20066;-78
2023/03/14 05:46:32;;;;;;;2.75;0.75;;;;;;;;;;2064141;28;20042;-78
2023/03/14 05:47:51;;;;;;;4.43;0.80;;;;;;;;;;2062192;28;20030;-78
2023/03/14 05:49:18;;;;;;;2.45;0.80;;;;;;;;;;2062444;28;20034;-79
2023/03/14 05:50:37;;;;;;;3.92;0.95;;;;;;;;;;2063588;28;20101;-78
2023/03/14 05:51:56;;;;;;;6.20;1.27;;;;;;;;;;2063971;28;20049;-78
2023/03/14 05:53:15;;;;;;;3.90;1.15;;;;;;;;;;2062951;28;20030;-78
2023/03/14 05:54:34;;;;;;;4.07;0.80;;;;;;;;;;2062521;28;20492;-79
2023/03/14 05:55:53;;;;;;;8.52;0.90;;;;;;;;;;2062668;28;20484;-78
2023/03/14 05:57:13;;;;;;;4.53;0.80;;;;;;;;;;2063622;28;20034;-79
2023/03/14 05:58:32;;;;;;;3.75;1.38;;;;;;;;;;2060473;28;20022;-77
2023/03/14 05:59:51;;;;;;;3.95;0.73;;;;;;;;;;2060547;28;20034;-77
2023/03/14 06:01:10;;;;;;;3.00;0.52;;;;;;;;;;2061783;28;20022;-77
2023/03/14 06:02:29;;;;;;;4.30;0.90;;;;;;;;;;2062526;28;20027;-77
2023/03/14 06:03:49;;;;;;;2.25;0.80;;;;;;;;;;2063227;28;20109;-77
2023/03/14 06:05:08;;;;;;;2.75;0.95;;;;;;;;;;2062434;28;20399;-77
2023/03/14 06:06:26;;;;;;;3.13;0.75;;;;;;;;;;2061453;28;20438;-76
2023/03/14 06:07:45;;;;;;;1.48;0.70;;;;;;;;;;2065108;28;20030;-76
2023/03/14 06:09:04;;;;;;;3.38;0.82;;;;;;;;;;2064165;28;20023;-77
2023/03/14 06:10:23;;;;;;;3.50;1.00;;;;;;;;;;2063650;28;20063;-78
2023/03/14 06:11:42;;;;;;;3.40;1.15;;;;;;;;;;2063900;28;20500;-76
2023/03/14 06:13:01;;;;;;;3.97;0.73;;;;;;;;;;2063169;28;20524;-79
2023/03/14 06:14:21;;;;;;;4.63;1.00;;;;;;;;;;2062247;28;20030;-77
2023/03/14 06:15:39;;;;;;;2.63;1.10;;;;;;;;;;2064851;28;20026;-78
2023/03/14 06:17:01;;;;;;;2.78;0.88;;;;;;;;;;2065696;28;20222;-78
2023/03/14 06:18:20;;;;;;;4.13;1.00;;;;;;;;;;2059725;28;20077;-77
2023/03/14 06:19:39;;;;;;;3.22;0.80;;;;;;;;;;2061602;28;20030;-79
2023/03/14 06:20:59;;;;;;;3.90;0.60;;;;;;;;;;2065350;28;21211;-79
2023/03/14 06:22:19;;;;;;;3.92;1.13;;;;;;;;;;2072332;28;20772;-78
2023/03/14 06:23:38;;;;;;;4.72;0.82;;;;;;;;;;2068449;28;20391;-78
2023/03/14 06:24:57;;;;;;;2.03;0.80;;;;;;;;;;2072891;28;20046;-78
2023/03/14 06:26:17;;;;;;;4.32;1.08;;;;;;;;;;2071790;28;20066;-78
2023/03/14 06:27:36;;;;;;;3.15;1.08;;;;;;;;;;2073369;28;20023;-79
2023/03/14 06:28:55;;;;;;;2.00;1.15;;;;;;;;;;2073244;28;20023;-79
2023/03/14 06:30:15;;;;;;;3.78;1.23;;;;;;;;;;2072266;28;20029;-79
2023/03/14 06:31:33;;;;;;;2.25;0.85;;;;;;;;;;2069937;28;20030;-78
2023/03/14 06:32:52;;;;;;;5.63;1.08;;;;;;;;;;2081290;28;20813;-78
2023/03/14 06:34:11;;;;;;;4.03;0.88;;;;;;;;;;2085432;28;20069;-77
2023/03/14 06:35:31;;;;;;;4.13;1.25;;;;;;;;;;2081700;28;20065;-79
2023/03/14 06:36:49;;;;;;;4.15;0.80;;;;;;;;;;2077677;28;20037;-79
2023/03/14 06:38:08;;;;;;;5.85;1.20;;;;;;;;;;2079567;28;20026;-78
2023/03/14 06:39:28;;;;;;;4.40;1.00;;;;;;;;;;2077556;28;20025;-78
2023/03/14 06:40:47;;;;;;;4.35;0.90;;;;;;;;;;2073215;28;20026;-78
2023/03/14 06:42:06;;;;;;;4.00;0.93;;;;;;;;;;2075168;28;20108;-78
2023/03/14 06:43:25;;;;;;;4.15;0.93;;;;;;;;;;2077609;28;20034;-78
2023/03/14 06:44:43;;;;;;;5.13;0.85;;;;;;;;;;2074607;28;20026;-78
2023/03/14 06:46:02;;;;;;;2.50;1.00;;;;;;;;;;2077077;28;20026;-78
2023/03/14 06:47:21;;;;;;;5.32;0.70;;;;;;;;;;2080131;28;20026;-77
2023/03/14 06:48:41;;;;;;;5.57;1.13;;;;;;;;;;2073497;28;20620;-78
2023/03/14 06:50:00;;;;;;;2.25;0.60;;;;;;;;;;2071214;28;20041;-78
2023/03/14 06:51:18;;;;;;;4.03;1.00;;;;;;;;;;2068921;28;20041;-78
2023/03/14 06:52:41;;;;;;;2.83;0.93;;;;;;;;;;2073887;28;20862;-77
2023/03/14 06:54:00;;;;;;;1.98;0.80;;;;;;;;;;2064840;28;20026;-77
2023/03/14 06:55:18;;;;;;;4.03;0.85;;;;;;;;;;2074823;28;20093;-77
2023/03/14 06:56:37;;;;;;;2.30;0.93;;;;;;;;;;2076529;28;20040;-78
2023/03/14 06:57:56;;;;;;;3.97;1.02;;;;;;;;;;2075871;28;20025;-79
2023/03/14 06:59:16;;;;;;;5.25;1.00;;;;;;;;;;2079351;28;20037;-78
2023/03/14 07:00:35;;;;;;;2.50;0.63;;;;;;;;;;2079848;28;20104;-77
2023/03/14 07:01:54;;;;;;;1.95;0.60;;;;;;;;;;2072009;28;20050;-77
2023/03/14 07:03:13;;;;;;;2.95;0.73;;;;;;;;;;2076554;28;20386;-77
2023/03/14 07:04:32;;;;;;;2.08;0.40;;;;;;;;;;2070549;28;20026;-77
2023/03/14 07:05:51;;;;;;;1.38;0.50;;;;;;;;;;2069752;28;20108;-77
2023/03/14 07:07:10;;;;;;;1.70;0.60;;;;;;;;;;2071228;28;20026;-78
2023/03/14 07:08:29;;;;;;;0.65;0.35;;;;;;;;;;2078250;28;20606;-78
2023/03/14 07:09:48;;;;;;;1.77;0.40;;;;;;;;;;2079909;28;20033;-77
2023/03/14 07:11:07;;;;;;;1.42;0.80;;;;;;;;;;2072776;28;20117;-77
2023/03/14 07:12:26;;;;;;;4.15;0.50;;;;;;;;;;2076253;28;20033;-77
2023/03/14 07:13:45;;;;;;;3.58;0.52;;;;;;;;;;2080330;28;20038;-77
2023/03/14 07:15:04;;;;;;;0.70;0.30;;;;;;;;;;2077341;28;20506;-77
2023/03/14 07:16:23;;;;;;;1.88;0.40;;;;;;;;;;2073273;28;20697;-77
2023/03/14 07:17:42;;;;;;;3.50;0.52;;;;;;;;;;2074013;28;20037;-77
2023/03/14 07:19:01;;;;;;;1.65;0.40;;;;;;;;;;2078559;28;20041;-77
2023/03/14 07:20:20;;;;;;;2.00;0.30;;;;;;;;;;2078953;28;20045;-77
2023/03/14 07:21:39;;;;;;;3.08;0.80;;;;;;;;;;2075302;28;20034;-77
2023/03/14 07:23:02;;;;;;;3.78;0.50;;;;;;;;;;2077978;28;20041;-78
2023/03/14 07:24:21;;;;;;;2.28;0.63;;;;;;;;;;2072272;28;20026;-77
2023/03/14 07:25:40;;;;;;;3.03;0.60;;;;;;;;;;2078286;28;20018;-77
2023/03/14 07:26:59;;;;;;;2.40;0.70;;;;;;;;;;2080391;28;20026;-77
2023/03/14 07:28:18;;;;;;;0.85;0.60;;;;;;;;;;2072667;28;20026;-77
2023/03/14 07:29:37;;;;;;;2.38;0.60;;;;;;;;;;2075717;28;20029;-77
2023/03/14 07:30:56;;;;;;;2.17;0.73;;;;;;;;;;2071586;28;20050;-77
2023/03/14 07:32:15;;;;;;;1.52;0.40;;;;;;;;;;2076304;28;20041;-78
2023/03/14 07:33:33;;;;;;;4.43;0.68;;;;;;;;;;2080368;28;20406;-76
2023/03/14 07:34:54;;;;;;;1.98;0.50;;;;;;;;;;2078462;28;20026;-78
2023/03/14 07:36:13;;;;;;;4.03;0.80;;;;;;;;;;2071396;28;20021;-77
2023/03/14 07:37:32;;;;;;;1.75;0.68;;;;;;;;;;2074051;28;20449;-77
2023/03/14 07:38:52;;;;;;;3.08;0.80;;;;;;;;;;2073381;28;20026;-77
2023/03/14 07:40:14;;;;;;;2.80;0.60;;;;;;;;;;2075803;28;20022;-77
2023/03/14 07:41:34;;;;;;;2.80;0.55;;;;;;;;;;2080629;28;20017;-76
2023/03/14 07:42:55;;;;;;;1.75;0.52;;;;;;;;;;2079683;28;20033;-77
2023/03/14 07:44:14;;;;;;;1.48;0.40;;;;;;;;;;2079350;28;20382;-78
2023/03/14 07:45:33;;;;;;;1.70;0.40;;;;;;;;;;2079903;28;20100;-77
2023/03/14 07:46:52;;;;;;;1.65;0.55;;;;;;;;;;2079394;28;20476;-77
2023/03/14 07:48:10;;;;;;;1.00;0.65;;;;;;;;;;2077673;28;20029;-78
2023/03/14 07:49:29;;;;;;;0.82;0.30;;;;;;;;;;2074153;28;20221;-78
2023/03/14 07:50:49;;;;;;;0.95;0.30;;;;;;;;;;2073437;28;20033;-78
2023/03/14 07:52:08;;;;;;;2.58;0.30;;;;;;;;;;2061290;28;20045;-79
2023/03/14 07:53:27;;;;;;;0.73;0.30;;;;;;;;;;2059315;28;20596;-80
2023/03/14 07:54:46;;;;;;;2.17;0.35;;;;;;;;;;2068296;28;20045;-78
2023/03/14 07:56:05;;;;;;;0.80;0.20;;;;;;;;;;2074636;28;20050;-77
2023/03/14 07:57:24;;;;;;;0.80;0.45;;;;;;;;;;2074517;28;20038;-77